RKST weather

Camp Casey-Dongduchon (Camp Mobile) (H-220) Airfield
Dongduchon, Gyeonggido, South Korea

Public forecast

Using degrees Celsius for public forecast. Weather courtesy of forecast.io.

Closest aviation weather report (METAR) to Camp Casey-Dongduchon (Camp Mobile) (H-220) Airfield

Closest report is Gimpo International Airport, 25.1 nm (46.5 km) SSW. Retrieved 2020/02/25 22:00 UTC (6 minutes ago):

RKSS 252200Z 33004KT CAVOK 02/00 Q1022 NOSIG

Closest aviation forecast (TAF) to Camp Casey-Dongduchon (Camp Mobile) (H-220) Airfield

Closest forecast is Gimpo International Airport, 25.1 nm (46.5 km) SSW. Retrieved 2020/02/25 18:00 UTC (4 hours ago):

TAF RKSS 251700Z 2518/2624 06005KT 7000 SCT030 TN00/2521Z TX11/2605Z TNM01/2621Z BECMG 2605/2606 32007KT BKN030 BECMG 2611/2612 06005KT SCT030 BECMG 2617/2618 4200 BR NSC BECMG 2621/2622 7000 NSW